createdAt,value
2022-11-29T00:02:42.374Z,29.83
2022-11-29T00:05:46.740Z,30.67
2022-11-29T00:08:50.390Z,30.20
2022-11-29T00:12:22.228Z,30.23
2022-11-29T00:15:25.137Z,28.87
2022-11-29T00:18:28.033Z,31.27
2022-11-29T00:21:32.354Z,29.03
2022-11-29T00:24:36.180Z,28.93
2022-11-29T00:27:39.087Z,29.17
2022-11-29T00:30:42.072Z,29.80
2022-11-29T00:33:45.566Z,28.63
2022-11-29T00:36:49.862Z,30.90
2022-11-29T00:39:52.712Z,30.37
2022-11-29T00:42:55.684Z,29.77
2022-11-29T00:45:58.664Z,29.33
2022-11-29T00:49:01.674Z,27.23
2022-11-29T00:52:06.271Z,29.63
2022-11-29T00:55:10.030Z,29.90
2022-11-29T00:58:13.015Z,30.13
2022-11-29T01:01:16.362Z,29.10
2022-11-29T01:04:19.741Z,29.93
2022-11-29T01:07:24.037Z,30.47
2022-11-29T01:10:27.360Z,28.40
2022-11-29T01:13:30.258Z,29.93
2022-11-29T01:16:33.748Z,28.93
2022-11-29T01:19:39.970Z,29.73
2022-11-29T01:22:44.375Z,28.53
2022-11-29T01:25:47.335Z,30.27
2022-11-29T01:28:52.217Z,30.53
2022-11-29T01:31:55.155Z,31.20
2022-11-29T01:34:58.047Z,31.77
2022-11-29T01:38:02.361Z,28.77
2022-11-29T01:41:07.621Z,29.67
2022-11-29T01:44:40.367Z,30.47
2022-11-29T01:47:46.484Z,27.90
2022-11-29T01:50:49.435Z,28.93
2022-11-29T01:53:54.653Z,30.80
2022-11-29T01:56:59.608Z,29.13
2022-11-29T02:00:10.382Z,30.13
2022-11-29T02:03:15.982Z,29.33
2022-11-29T02:06:19.300Z,30.47
2022-11-29T02:09:24.955Z,30.67
2022-11-29T02:12:35.935Z,28.80
2022-11-29T02:15:45.659Z,29.27
2022-11-29T02:18:58.738Z,28.63
2022-11-29T02:22:08.017Z,29.47
2022-11-29T02:25:37.482Z,31.03
2022-11-29T02:29:01.566Z,30.73
2022-11-29T02:32:38.366Z,31.47
2022-11-29T02:36:24.669Z,30.73
2022-11-29T02:39:49.494Z,30.50
2022-11-29T02:43:17.270Z,30.73
2022-11-29T02:46:42.693Z,29.97
2022-11-29T02:50:10.740Z,30.67
2022-11-29T02:53:19.623Z,31.60
2022-11-29T02:56:30.382Z,31.80
2022-11-29T02:59:45.955Z,30.23
2022-11-29T03:02:54.148Z,30.97
2022-11-29T03:06:09.030Z,30.43
2022-11-29T03:09:20.138Z,30.00
2022-11-29T03:12:31.930Z,32.23
2022-11-29T03:15:44.483Z,31.67
2022-11-29T03:19:01.845Z,31.53
2022-11-29T03:22:13.097Z,32.33
2022-11-29T03:25:26.189Z,30.47
2022-11-29T03:28:33.554Z,29.73
2022-11-29T03:31:41.828Z,31.43
2022-11-29T03:34:57.422Z,33.33
2022-11-29T03:38:10.026Z,31.03
2022-11-29T03:41:21.588Z,32.03
2022-11-29T03:44:28.849Z,30.90
2022-11-29T03:47:36.930Z,29.73
2022-11-29T03:50:45.232Z,31.77
2022-11-29T03:53:55.240Z,31.43
2022-11-29T03:56:58.829Z,32.07
2022-11-29T04:00:06.659Z,33.70
2022-11-29T04:03:47.562Z,31.93
2022-11-29T04:07:05.117Z,33.13
2022-11-29T04:10:18.457Z,30.20
2022-11-29T04:13:52.403Z,31.50
2022-11-29T04:17:27.794Z,32.17
2022-11-29T04:21:01.504Z,32.27
2022-11-29T04:24:40.142Z,32.20
2022-11-29T04:28:06.007Z,33.90
2022-11-29T04:31:18.638Z,32.47
2022-11-29T04:34:53.176Z,32.10
2022-11-29T04:38:17.519Z,31.93
2022-11-29T04:41:55.616Z,30.47
2022-11-29T04:45:36.453Z,30.50
2022-11-29T04:49:01.889Z,31.90
2022-11-29T04:52:25.107Z,32.80
2022-11-29T04:55:42.966Z,31.23
2022-11-29T04:58:54.406Z,30.47
2022-11-29T05:02:09.652Z,30.57
2022-11-29T05:05:30.378Z,32.77
2022-11-29T05:08:46.343Z,31.60
2022-11-29T05:12:00.931Z,32.27
2022-11-29T05:15:25.415Z,31.37
2022-11-29T05:18:49.775Z,31.37
2022-11-29T05:22:03.422Z,31.03
2022-11-29T05:25:24.276Z,31.83
2022-11-29T05:28:33.720Z,30.67
2022-11-29T05:31:56.668Z,31.47
2022-11-29T05:35:30.121Z,28.97
2022-11-29T05:38:53.840Z,32.13
2022-11-29T05:42:26.165Z,31.53
2022-11-29T05:45:34.275Z,31.67
2022-11-29T05:48:45.438Z,30.60
2022-11-29T05:51:59.273Z,31.93
2022-11-29T05:55:18.103Z,30.43
2022-11-29T05:58:43.979Z,32.83
2022-11-29T06:01:56.185Z,32.23
2022-11-29T06:05:15.841Z,32.90
2022-11-29T06:08:27.899Z,30.47
2022-11-29T06:11:34.934Z,31.73
2022-11-29T06:15:06.651Z,30.73
2022-11-29T06:18:23.588Z,31.17
2022-11-29T06:21:39.101Z,29.37
2022-11-29T06:24:56.434Z,30.50
2022-11-29T06:28:22.247Z,29.53
2022-11-29T06:31:29.588Z,30.20
2022-11-29T06:34:44.311Z,30.23
2022-11-29T06:37:51.464Z,31.27
2022-11-29T06:41:01.820Z,30.27
2022-11-29T06:44:05.969Z,32.20
2022-11-29T06:47:13.685Z,31.53
2022-11-29T06:50:30.492Z,31.57
2022-11-29T06:53:41.791Z,30.87
2022-11-29T06:56:53.236Z,31.53
2022-11-29T07:00:07.329Z,31.77
2022-11-29T07:03:26.775Z,30.80
2022-11-29T07:06:30.874Z,31.67
2022-11-29T07:09:35.968Z,32.43
2022-11-29T07:12:40.781Z,31.80
2022-11-29T07:15:53.598Z,30.10
2022-11-29T07:19:07.331Z,32.73
2022-11-29T07:22:24.115Z,30.83
2022-11-29T07:25:38.928Z,31.33
2022-11-29T07:28:51.705Z,30.23
2022-11-29T07:32:04.113Z,29.73
2022-11-29T07:35:15.326Z,30.27
2022-11-29T07:38:26.715Z,30.60
2022-11-29T07:41:41.349Z,30.93
2022-11-29T07:44:56.834Z,30.30
2022-11-29T07:48:00.022Z,28.83
2022-11-29T07:51:03.380Z,28.60
2022-11-29T07:54:06.950Z,30.43
2022-11-29T07:57:09.863Z,30.30
2022-11-29T08:00:15.874Z,29.47
2022-11-29T08:03:18.787Z,29.43
2022-11-29T08:06:26.451Z,31.40
2022-11-29T08:09:29.477Z,31.60
2022-11-29T08:12:32.395Z,30.37
2022-11-29T08:15:36.900Z,30.13
2022-11-29T08:18:39.797Z,30.80
2022-11-29T08:21:46.864Z,29.43
2022-11-29T08:24:49.856Z,30.67
2022-11-29T08:27:52.860Z,29.97
2022-11-29T08:31:02.858Z,30.47
2022-11-29T08:34:06.671Z,30.27
2022-11-29T08:37:09.594Z,29.27
2022-11-29T08:40:13.576Z,29.57
2022-11-29T08:43:16.443Z,30.63
2022-11-29T08:46:20.798Z,30.60
2022-11-29T08:49:23.738Z,30.07
2022-11-29T08:52:43.947Z,29.50
2022-11-29T08:55:47.004Z,29.87
2022-11-29T08:58:49.910Z,29.47
2022-11-29T09:01:54.235Z,28.87
2022-11-29T09:04:57.378Z,30.00
2022-11-29T09:08:00.347Z,30.00
2022-11-29T09:11:09.020Z,28.53
2022-11-29T09:14:16.632Z,30.67
2022-11-29T09:17:20.914Z,29.30
2022-11-29T09:20:23.917Z,30.50
2022-11-29T09:23:26.804Z,29.70
2022-11-29T09:26:32.427Z,28.60
2022-11-29T09:29:35.581Z,28.37
2022-11-29T09:32:39.964Z,29.30
2022-11-29T09:35:43.035Z,27.77
2022-11-29T09:38:46.014Z,29.20
2022-11-29T09:42:12.332Z,30.10
2022-11-29T09:45:20.406Z,26.97
2022-11-29T09:48:48.555Z,27.47
2022-11-29T09:51:56.552Z,29.17
2022-11-29T09:55:12.531Z,27.93
2022-11-29T09:58:20.776Z,29.13
2022-11-29T10:01:29.031Z,28.77
2022-11-29T10:04:40.244Z,28.03
2022-11-29T10:07:47.328Z,27.53
2022-11-29T10:10:54.012Z,29.20
2022-11-29T10:14:01.685Z,28.37
2022-11-29T10:17:16.843Z,29.47
2022-11-29T10:20:24.530Z,27.27
2022-11-29T10:23:34.312Z,28.17
2022-11-29T10:26:37.866Z,29.30
2022-11-29T10:29:40.820Z,28.73
2022-11-29T10:32:47.193Z,29.27
2022-11-29T10:35:56.614Z,30.30
2022-11-29T10:39:03.808Z,31.17
2022-11-29T10:42:31.359Z,27.27
2022-11-29T10:45:38.992Z,30.40
2022-11-29T10:48:42.210Z,30.77
2022-11-29T10:51:46.866Z,28.73
2022-11-29T10:54:51.174Z,29.43
2022-11-29T10:58:22.078Z,28.53
2022-11-29T11:01:30.151Z,28.23
2022-11-29T11:04:37.565Z,30.07
2022-11-29T11:07:42.075Z,27.60
2022-11-29T11:10:58.615Z,28.93
2022-11-29T11:14:07.636Z,29.57
2022-11-29T11:17:22.827Z,30.53
2022-11-29T11:20:28.463Z,29.03
2022-11-29T11:23:39.873Z,29.10
2022-11-29T11:26:46.812Z,30.53
2022-11-29T11:29:53.829Z,29.37
2022-11-29T11:33:18.920Z,30.57
2022-11-29T11:36:24.691Z,30.13
2022-11-29T11:39:29.458Z,29.97
2022-11-29T11:42:38.949Z,29.50
2022-11-29T11:45:41.931Z,30.77
2022-11-29T11:48:44.908Z,32.10
2022-11-29T11:51:48.086Z,30.40
2022-11-29T11:54:55.762Z,31.10
2022-11-29T11:58:15.955Z,30.37
2022-11-29T12:01:30.223Z,30.43
2022-11-29T12:04:38.019Z,30.23
2022-11-29T12:08:07.257Z,32.07
2022-11-29T12:11:14.473Z,30.80
2022-11-29T12:14:25.062Z,29.60
2022-11-29T12:17:34.271Z,29.30
2022-11-29T12:20:41.922Z,30.73
2022-11-29T12:23:49.687Z,31.40
2022-11-29T12:26:58.419Z,31.57
2022-11-29T12:30:01.838Z,30.67
2022-11-29T12:33:22.052Z,30.97
2022-11-29T12:36:36.320Z,31.03
2022-11-29T12:39:57.425Z,31.53
2022-11-29T12:43:10.709Z,32.30
2022-11-29T12:46:19.410Z,31.63
2022-11-29T12:49:27.239Z,31.43
2022-11-29T12:52:38.653Z,31.40
2022-11-29T12:55:50.420Z,32.97
2022-11-29T12:59:15.543Z,32.53
2022-11-29T13:02:30.281Z,32.40
2022-11-29T13:05:43.745Z,32.13
2022-11-29T13:09:02.244Z,32.57
2022-11-29T13:12:14.214Z,33.33
2022-11-29T13:15:21.245Z,31.40
2022-11-29T13:18:28.125Z,32.07
2022-11-29T13:21:37.807Z,32.50
2022-11-29T13:24:45.169Z,34.23
2022-11-29T13:27:56.803Z,33.33
2022-11-29T13:31:03.784Z,31.33
2022-11-29T13:34:11.716Z,32.87
2022-11-29T13:37:20.743Z,33.20
2022-11-29T13:40:35.615Z,34.23
2022-11-29T13:43:44.092Z,33.47
2022-11-29T13:46:56.479Z,33.40
2022-11-29T13:50:02.467Z,34.43
2022-11-29T13:53:12.690Z,33.53
2022-11-29T13:56:27.403Z,33.00
2022-11-29T13:59:32.669Z,33.13
2022-11-29T14:02:36.992Z,34.67
2022-11-29T14:05:41.253Z,32.20
2022-11-29T14:09:31.476Z,35.50
2022-11-29T14:12:42.455Z,33.30
2022-11-29T14:15:54.406Z,35.73
2022-11-29T14:19:26.716Z,33.90
2022-11-29T14:22:33.182Z,34.87
2022-11-29T14:25:52.964Z,34.53
2022-11-29T14:28:56.623Z,34.43
2022-11-29T14:32:00.687Z,35.00
2022-11-29T14:35:16.008Z,33.90
2022-11-29T14:38:30.793Z,34.33
2022-11-29T14:41:45.053Z,35.40
2022-11-29T14:44:52.097Z,32.07
2022-11-29T14:47:55.905Z,36.20
2022-11-29T14:51:10.544Z,34.23
2022-11-29T14:54:18.283Z,33.77
2022-11-29T14:58:15.517Z,34.13
2022-11-29T15:01:20.051Z,32.33
2022-11-29T15:04:26.403Z,34.03
2022-11-29T15:07:32.794Z,34.77
2022-11-29T15:10:42.238Z,33.63
2022-11-29T15:13:54.169Z,34.30
2022-11-29T15:17:07.862Z,34.10
2022-11-29T15:20:32.060Z,32.63
2022-11-29T15:23:43.317Z,32.97
2022-11-29T15:27:00.165Z,32.13
2022-11-29T15:30:22.112Z,34.13
2022-11-29T15:33:26.475Z,32.97
2022-11-29T15:36:30.437Z,32.60
2022-11-29T15:39:36.803Z,31.17
2022-11-29T15:42:42.058Z,31.90
2022-11-29T15:45:48.860Z,34.07
2022-11-29T15:48:51.913Z,34.97
2022-11-29T15:51:58.169Z,32.93
2022-11-29T15:55:06.436Z,32.27
2022-11-29T15:58:14.612Z,31.00
2022-11-29T16:01:22.439Z,33.27
2022-11-29T16:04:27.141Z,32.20
2022-11-29T16:07:32.618Z,34.67
2022-11-29T16:10:43.458Z,34.47
2022-11-29T16:14:03.836Z,33.60
2022-11-29T16:17:06.765Z,33.67
2022-11-29T16:20:25.022Z,34.77
2022-11-29T16:23:34.505Z,34.43
2022-11-29T16:26:41.320Z,32.63
2022-11-29T16:29:46.275Z,31.63
2022-11-29T16:32:53.935Z,34.33
2022-11-29T16:36:07.701Z,33.30
2022-11-29T16:39:22.473Z,32.90
2022-11-29T16:42:29.064Z,32.57
2022-11-29T16:45:34.126Z,33.83
2022-11-29T16:48:38.427Z,35.07
2022-11-29T16:51:48.239Z,35.87
2022-11-29T16:54:52.196Z,36.63
2022-11-29T16:57:56.661Z,34.63
2022-11-29T17:00:59.675Z,35.70
2022-11-29T17:04:02.769Z,36.07
2022-11-29T17:07:08.492Z,36.93
2022-11-29T17:10:17.514Z,35.40
2022-11-29T17:13:21.767Z,36.77
2022-11-29T17:16:26.043Z,33.17
2022-11-29T17:19:30.340Z,37.10
2022-11-29T17:22:33.283Z,37.07
2022-11-29T17:25:36.178Z,37.40
2022-11-29T17:28:41.094Z,35.13
2022-11-29T17:31:45.294Z,37.93
2022-11-29T17:34:48.398Z,37.30
2022-11-29T17:37:51.453Z,37.70
2022-11-29T17:40:54.357Z,37.40
2022-11-29T17:43:59.105Z,38.50
2022-11-29T17:47:02.022Z,34.67
2022-11-29T17:50:05.678Z,35.37
2022-11-29T17:53:08.543Z,36.67
2022-11-29T17:56:14.040Z,37.10
2022-11-29T17:59:18.361Z,35.50
2022-11-29T18:02:21.382Z,37.80
2022-11-29T18:05:24.348Z,36.50
2022-11-29T18:08:27.258Z,37.80
2022-11-29T18:11:40.315Z,38.70
2022-11-29T18:14:50.194Z,35.90
2022-11-29T18:17:53.095Z,37.80
2022-11-29T18:20:58.714Z,34.40
2022-11-29T18:24:02.706Z,35.97
2022-11-29T18:27:05.594Z,35.37
2022-11-29T18:30:11.298Z,36.53
2022-11-29T18:33:14.285Z,37.70
2022-11-29T18:36:18.822Z,36.43
2022-11-29T18:39:23.543Z,36.00
2022-11-29T18:42:26.454Z,36.67
2022-11-29T18:45:30.844Z,36.67
2022-11-29T18:48:33.774Z,37.80
2022-11-29T18:51:37.788Z,37.87
2022-11-29T18:54:40.666Z,38.30
2022-11-29T18:57:43.787Z,37.33
2022-11-29T19:00:48.184Z,37.90
2022-11-29T19:03:53.082Z,35.40
2022-11-29T19:06:56.089Z,37.37
2022-11-29T19:09:58.965Z,38.47
2022-11-29T19:13:03.821Z,36.90
2022-11-29T19:16:12.972Z,37.87
2022-11-29T19:19:18.527Z,37.60
2022-11-29T19:22:21.435Z,37.33
2022-11-29T19:25:24.349Z,38.17
2022-11-29T19:28:27.279Z,38.10
2022-11-29T19:31:31.606Z,37.23
2022-11-29T19:34:34.486Z,38.73
2022-11-29T19:37:37.363Z,37.47
2022-11-29T19:40:40.532Z,39.30
2022-11-29T19:43:43.609Z,37.20
2022-11-29T19:46:49.252Z,36.80
2022-11-29T19:49:52.415Z,36.87
2022-11-29T19:52:55.513Z,36.30
2022-11-29T19:55:58.577Z,37.73
2022-11-29T19:59:01.568Z,38.57
2022-11-29T20:02:06.057Z,37.03
2022-11-29T20:05:09.644Z,37.70
2022-11-29T20:08:15.872Z,39.53
2022-11-29T20:11:22.896Z,37.93
2022-11-29T20:14:26.526Z,38.30
2022-11-29T20:17:30.899Z,39.03
2022-11-29T20:20:34.739Z,38.93
2022-11-29T20:23:38.741Z,39.73
2022-11-29T20:26:43.186Z,36.40
2022-11-29T20:29:46.366Z,38.93
2022-11-29T20:32:50.944Z,37.00
2022-11-29T20:36:03.819Z,37.87
2022-11-29T20:39:19.054Z,39.00
2022-11-29T20:42:48.274Z,38.30
2022-11-29T20:45:51.534Z,36.87
2022-11-29T20:48:59.410Z,38.53
2022-11-29T20:52:11.492Z,37.83
2022-11-29T20:55:14.508Z,39.67
2022-11-29T20:58:18.261Z,39.50
2022-11-29T21:01:21.232Z,40.63
2022-11-29T21:04:25.685Z,40.93
2022-11-29T21:07:29.223Z,40.27
2022-11-29T21:10:32.207Z,40.33
2022-11-29T21:13:35.691Z,37.10
2022-11-29T21:16:38.912Z,40.47
2022-11-29T21:19:43.734Z,41.40
2022-11-29T21:22:53.855Z,38.97
2022-11-29T21:26:03.413Z,39.03
2022-11-29T21:29:16.887Z,37.60
2022-11-29T21:32:23.074Z,40.43
2022-11-29T21:35:27.321Z,42.67
2022-11-29T21:38:30.494Z,41.37
2022-11-29T21:41:33.418Z,43.00
2022-11-29T21:44:36.439Z,42.40
2022-11-29T21:47:39.346Z,43.47
2022-11-29T21:50:43.634Z,45.00
2022-11-29T21:53:46.861Z,42.90
2022-11-29T21:56:49.771Z,41.43
2022-11-29T21:59:53.049Z,43.50
2022-11-29T22:02:57.495Z,44.13
2022-11-29T22:06:04.257Z,41.57
2022-11-29T22:09:07.642Z,41.37
2022-11-29T22:12:32.603Z,42.77
2022-11-29T22:15:33.810Z,43.53
2022-11-29T22:18:37.496Z,42.53
2022-11-29T22:21:42.538Z,42.00
2022-11-29T22:24:45.724Z,42.20
2022-11-29T22:27:50.831Z,40.93
2022-11-29T22:30:53.738Z,42.53
2022-11-29T22:33:56.899Z,41.00
2022-11-29T22:37:02.390Z,43.13
2022-11-29T22:40:06.819Z,41.30
2022-11-29T22:43:09.710Z,42.07
2022-11-29T22:46:14.561Z,41.57
2022-11-29T22:49:17.585Z,42.47
2022-11-29T22:52:21.955Z,42.63
2022-11-29T22:55:24.851Z,40.43
2022-11-29T22:58:28.202Z,43.07
2022-11-29T23:01:33.256Z,42.30
2022-11-29T23:04:36.177Z,41.60
2022-11-29T23:07:40.520Z,43.87
2022-11-29T23:10:43.538Z,42.77
2022-11-29T23:13:46.940Z,44.33
2022-11-29T23:16:50.104Z,41.03
2022-11-29T23:19:53.095Z,41.43
2022-11-29T23:22:57.332Z,42.10
2022-11-29T23:26:01.185Z,42.27
2022-11-29T23:29:04.531Z,42.80
2022-11-29T23:32:07.497Z,41.60
2022-11-29T23:35:10.757Z,45.23
2022-11-29T23:38:15.156Z,44.13
2022-11-29T23:41:18.297Z,42.03
2022-11-29T23:44:21.174Z,44.40
2022-11-29T23:47:24.134Z,41.47
2022-11-29T23:50:27.063Z,42.67
2022-11-29T23:53:31.447Z,43.50
2022-11-29T23:56:35.380Z,43.13
2022-11-29T23:59:38.458Z,42.50
